sensor_id;sensor_type;location;lat;lon;timestamp;pressure;altitude;pressure_sealevel;temperature;humidity
21236;BME280;10775;42.678;26.324;2023-04-23T00:00:39;98720.56;;;9.86;100.00
21236;BME280;10775;42.678;26.324;2023-04-23T00:03:07;98719.72;;;9.87;100.00
21236;BME280;10775;42.678;26.324;2023-04-23T00:05:37;98719.72;;;9.87;100.00
21236;BME280;10775;42.678;26.324;2023-04-23T00:08:04;98718.13;;;9.77;100.00
21236;BME280;10775;42.678;26.324;2023-04-23T00:10:30;98722.59;;;9.70;100.00
21236;BME280;10775;42.678;26.324;2023-04-23T00:12:56;98717.47;;;9.63;100.00
21236;BME280;10775;42.678;26.324;2023-04-23T00:15:22;98731.56;;;9.52;100.00
21236;BME280;10775;42.678;26.324;2023-04-23T00:17:48;98732.34;;;9.56;100.00
21236;BME280;10775;42.678;26.324;2023-04-23T00:20:14;98735.09;;;9.48;100.00
21236;BME280;10775;42.678;26.324;2023-04-23T00:22:41;98733.13;;;9.63;100.00
21236;BME280;10775;42.678;26.324;2023-04-23T00:25:07;98722.47;;;9.76;100.00
21236;BME280;10775;42.678;26.324;2023-04-23T00:27:32;98729.38;;;9.82;100.00
21236;BME280;10775;42.678;26.324;2023-04-23T00:29:58;98733.69;;;9.85;100.00
21236;BME280;10775;42.678;26.324;2023-04-23T00:32:23;98731.06;;;9.83;100.00
21236;BME280;10775;42.678;26.324;2023-04-23T00:34:48;98725.06;;;9.76;100.00
21236;BME280;10775;42.678;26.324;2023-04-23T00:37:14;98731.38;;;9.65;100.00
21236;BME280;10775;42.678;26.324;2023-04-23T00:39:40;98729.63;;;9.64;100.00
21236;BME280;10775;42.678;26.324;2023-04-23T00:42:06;98736.53;;;9.69;100.00
21236;BME280;10775;42.678;26.324;2023-04-23T00:44:37;98734.84;;;9.65;100.00
21236;BME280;10775;42.678;26.324;2023-04-23T00:47:02;98737.56;;;9.59;100.00
21236;BME280;10775;42.678;26.324;2023-04-23T00:49:29;98733.13;;;9.63;100.00
21236;BME280;10775;42.678;26.324;2023-04-23T00:51:55;98730.66;;;9.55;100.00
21236;BME280;10775;42.678;26.324;2023-04-23T00:54:21;98733.34;;;9.49;100.00
21236;BME280;10775;42.678;26.324;2023-04-23T00:56:47;98734.28;;;9.45;100.00
21236;BME280;10775;42.678;26.324;2023-04-23T00:59:13;98730.69;;;9.52;100.00
21236;BME280;10775;42.678;26.324;2023-04-23T01:01:39;98743.69;;;9.56;100.00
21236;BME280;10775;42.678;26.324;2023-04-23T01:04:05;98739.66;;;9.32;100.00
21236;BME280;10775;42.678;26.324;2023-04-23T01:06:34;98745.03;;;9.20;100.00
21236;BME280;10775;42.678;26.324;2023-04-23T01:08:59;98737.13;;;9.28;100.00
21236;BME280;10775;42.678;26.324;2023-04-23T01:11:25;98736.94;;;9.42;100.00
21236;BME280;10775;42.678;26.324;2023-04-23T01:13:52;98734.97;;;9.57;100.00
21236;BME280;10775;42.678;26.324;2023-04-23T01:16:17;98732.41;;;9.54;100.00
21236;BME280;10775;42.678;26.324;2023-04-23T01:18:43;98730.53;;;9.63;100.00
21236;BME280;10775;42.678;26.324;2023-04-23T01:21:09;98734.13;;;9.55;100.00
21236;BME280;10775;42.678;26.324;2023-04-23T01:23:38;98733.25;;;9.56;100.00
21236;BME280;10775;42.678;26.324;2023-04-23T01:26:04;98722.81;;;9.56;100.00
21236;BME280;10775;42.678;26.324;2023-04-23T01:28:29;98730.66;;;9.53;100.00
21236;BME280;10775;42.678;26.324;2023-04-23T01:30:55;98723.72;;;9.54;100.00
21236;BME280;10775;42.678;26.324;2023-04-23T01:33:21;98728.03;;;9.53;100.00
21236;BME280;10775;42.678;26.324;2023-04-23T01:35:47;98733.38;;;9.47;100.00
21236;BME280;10775;42.678;26.324;2023-04-23T01:38:13;98731.25;;;9.13;100.00
21236;BME280;10775;42.678;26.324;2023-04-23T01:40:40;98728.53;;;9.20;100.00
21236;BME280;10775;42.678;26.324;2023-04-23T01:43:05;98728.47;;;9.23;100.00
21236;BME280;10775;42.678;26.324;2023-04-23T01:45:31;98734.75;;;9.11;100.00
21236;BME280;10775;42.678;26.324;2023-04-23T01:47:58;98726.81;;;9.19;100.00
21236;BME280;10775;42.678;26.324;2023-04-23T01:50:24;98729.28;;;9.28;100.00
21236;BME280;10775;42.678;26.324;2023-04-23T01:52:50;98723.63;;;8.98;100.00
21236;BME280;10775;42.678;26.324;2023-04-23T01:55:16;98733.03;;;9.08;100.00
21236;BME280;10775;42.678;26.324;2023-04-23T01:57:44;98728.09;;;8.87;100.00
21236;BME280;10775;42.678;26.324;2023-04-23T02:00:10;98726.28;;;8.92;100.00
21236;BME280;10775;42.678;26.324;2023-04-23T02:02:38;98727.88;;;9.05;100.00
21236;BME280;10775;42.678;26.324;2023-04-23T02:05:10;98723.41;;;9.13;100.00
21236;BME280;10775;42.678;26.324;2023-04-23T02:07:36;98724.22;;;9.19;100.00
21236;BME280;10775;42.678;26.324;2023-04-23T02:10:02;98724.28;;;9.14;100.00
21236;BME280;10775;42.678;26.324;2023-04-23T02:12:28;98725.53;;;8.84;100.00
21236;BME280;10775;42.678;26.324;2023-04-23T02:14:53;98733.09;;;9.04;100.00
21236;BME280;10775;42.678;26.324;2023-04-23T02:17:19;98734.66;;;9.17;100.00
21236;BME280;10775;42.678;26.324;2023-04-23T02:19:47;98728.84;;;8.98;100.00
21236;BME280;10775;42.678;26.324;2023-04-23T02:22:13;98737.41;;;9.06;100.00
21236;BME280;10775;42.678;26.324;2023-04-23T02:24:38;98735.72;;;9.02;100.00
21236;BME280;10775;42.678;26.324;2023-04-23T02:27:06;98738.31;;;9.04;100.00
21236;BME280;10775;42.678;26.324;2023-04-23T02:29:32;98736.66;;;8.97;100.00
21236;BME280;10775;42.678;26.324;2023-04-23T02:31:57;98727.97;;;8.98;100.00
21236;BME280;10775;42.678;26.324;2023-04-23T02:34:23;98729.59;;;9.08;100.00
21236;BME280;10775;42.678;26.324;2023-04-23T02:36:48;98734.81;;;9.05;100.00
21236;BME280;10775;42.678;26.324;2023-04-23T02:39:14;98733.09;;;9.05;100.00
21236;BME280;10775;42.678;26.324;2023-04-23T02:41:40;98733.28;;;8.87;100.00
21236;BME280;10775;42.678;26.324;2023-04-23T02:44:05;98734.16;;;8.89;100.00
21236;BME280;10775;42.678;26.324;2023-04-23T02:46:31;98739.41;;;8.87;100.00
21236;BME280;10775;42.678;26.324;2023-04-23T02:48:57;98737.63;;;8.89;100.00
21236;BME280;10775;42.678;26.324;2023-04-23T02:51:22;98744.47;;;8.97;100.00
21236;BME280;10775;42.678;26.324;2023-04-23T02:53:47;98744.44;;;9.00;100.00
21236;BME280;10775;42.678;26.324;2023-04-23T02:56:13;98746.94;;;9.07;100.00
21236;BME280;10775;42.678;26.324;2023-04-23T02:58:38;98747.13;;;8.95;100.00
21236;BME280;10775;42.678;26.324;2023-04-23T03:01:04;98748.84;;;8.96;100.00
21236;BME280;10775;42.678;26.324;2023-04-23T03:03:30;98748.84;;;8.98;100.00
21236;BME280;10775;42.678;26.324;2023-04-23T03:05:56;98750.75;;;8.82;100.00
21236;BME280;10775;42.678;26.324;2023-04-23T03:08:22;98749.75;;;8.95;100.00
21236;BME280;10775;42.678;26.324;2023-04-23T03:10:47;98746.09;;;9.08;100.00
21236;BME280;10775;42.678;26.324;2023-04-23T03:13:13;98752.25;;;9.01;100.00
21236;BME280;10775;42.678;26.324;2023-04-23T03:15:39;98753.16;;;8.99;100.00
21236;BME280;10775;42.678;26.324;2023-04-23T03:18:04;98748.97;;;8.85;100.00
21236;BME280;10775;42.678;26.324;2023-04-23T03:20:33;98748.31;;;8.69;100.00
21236;BME280;10775;42.678;26.324;2023-04-23T03:22:58;98755.13;;;8.78;100.00
21236;BME280;10775;42.678;26.324;2023-04-23T03:25:24;98751.63;;;8.81;100.00
21236;BME280;10775;42.678;26.324;2023-04-23T03:27:51;98751.53;;;8.87;100.00
21236;BME280;10775;42.678;26.324;2023-04-23T03:30:16;98756.75;;;8.87;100.00
21236;BME280;10775;42.678;26.324;2023-04-23T03:32:42;98756.75;;;8.88;100.00
21236;BME280;10775;42.678;26.324;2023-04-23T03:35:07;98758.47;;;8.92;100.00
21236;BME280;10775;42.678;26.324;2023-04-23T03:37:33;98762.16;;;8.75;100.00
21236;BME280;10775;42.678;26.324;2023-04-23T03:39:59;98764.59;;;8.87;100.00
21236;BME280;10775;42.678;26.324;2023-04-23T03:42:27;98761.13;;;8.86;100.00
21236;BME280;10775;42.678;26.324;2023-04-23T03:44:53;98762.06;;;8.82;100.00
21236;BME280;10775;42.678;26.324;2023-04-23T03:47:19;98767.28;;;8.79;100.00
21236;BME280;10775;42.678;26.324;2023-04-23T03:49:44;98770.78;;;8.78;100.00
21236;BME280;10775;42.678;26.324;2023-04-23T03:52:09;98770.88;;;8.70;100.00
21236;BME280;10775;42.678;26.324;2023-04-23T03:54:35;98781.38;;;8.64;100.00
21236;BME280;10775;42.678;26.324;2023-04-23T03:57:00;98777.22;;;8.45;100.00
21236;BME280;10775;42.678;26.324;2023-04-23T03:59:26;98777.25;;;8.39;100.00
21236;BME280;10775;42.678;26.324;2023-04-23T04:01:52;98774.59;;;8.45;100.00
21236;BME280;10775;42.678;26.324;2023-04-23T04:04:17;98780.47;;;8.64;100.00
21236;BME280;10775;42.678;26.324;2023-04-23T04:06:43;98780.44;;;8.68;100.00
21236;BME280;10775;42.678;26.324;2023-04-23T04:09:08;98782.88;;;8.85;100.00
21236;BME280;10775;42.678;26.324;2023-04-23T04:11:34;98791.50;;;8.89;100.00
21236;BME280;10775;42.678;26.324;2023-04-23T04:13:59;98786.34;;;8.87;100.00
21236;BME280;10775;42.678;26.324;2023-04-23T04:16:25;98788.00;;;8.93;100.00
21236;BME280;10775;42.678;26.324;2023-04-23T04:18:50;98788.00;;;8.93;100.00
21236;BME280;10775;42.678;26.324;2023-04-23T04:21:16;98792.44;;;8.85;100.00
21236;BME280;10775;42.678;26.324;2023-04-23T04:23:44;98789.66;;;9.00;100.00
21236;BME280;10775;42.678;26.324;2023-04-23T04:26:09;98788.72;;;9.04;100.00
21236;BME280;10775;42.678;26.324;2023-04-23T04:28:35;98793.84;;;9.13;100.00
21236;BME280;10775;42.678;26.324;2023-04-23T04:31:04;98792.19;;;9.06;100.00
21236;BME280;10775;42.678;26.324;2023-04-23T04:33:33;98794.69;;;9.14;100.00
21236;BME280;10775;42.678;26.324;2023-04-23T04:36:00;98795.59;;;9.10;100.00
21236;BME280;10775;42.678;26.324;2023-04-23T04:38:26;98805.22;;;9.06;100.00
21236;BME280;10775;42.678;26.324;2023-04-23T04:40:55;98791.47;;;8.95;100.00
21236;BME280;10775;42.678;26.324;2023-04-23T04:43:24;98806.94;;;9.07;100.00
21236;BME280;10775;42.678;26.324;2023-04-23T04:45:51;98811.09;;;9.22;100.00
21236;BME280;10775;42.678;26.324;2023-04-23T04:48:16;98808.72;;;9.05;100.00
21236;BME280;10775;42.678;26.324;2023-04-23T04:50:42;98812.91;;;9.19;100.00
21236;BME280;10775;42.678;26.324;2023-04-23T04:53:08;98818.78;;;9.33;100.00
21236;BME280;10775;42.678;26.324;2023-04-23T04:55:34;98821.41;;;9.33;100.00
21236;BME280;10775;42.678;26.324;2023-04-23T04:57:59;98811.81;;;9.35;100.00
21236;BME280;10775;42.678;26.324;2023-04-23T05:00:27;98811.81;;;9.35;100.00
21236;BME280;10775;42.678;26.324;2023-04-23T05:02:54;98818.88;;;9.28;100.00
21236;BME280;10775;42.678;26.324;2023-04-23T05:05:22;98814.22;;;9.50;100.00
21236;BME280;10775;42.678;26.324;2023-04-23T05:07:47;98816.66;;;9.63;100.00
21236;BME280;10775;42.678;26.324;2023-04-23T05:10:13;98817.41;;;9.71;100.00
21236;BME280;10775;42.678;26.324;2023-04-23T05:12:39;98811.06;;;9.90;100.00
21236;BME280;10775;42.678;26.324;2023-04-23T05:15:09;98822.00;;;10.12;100.00
21236;BME280;10775;42.678;26.324;2023-04-23T05:17:36;98809.66;;;10.23;100.00
21236;BME280;10775;42.678;26.324;2023-04-23T05:20:02;98809.56;;;10.31;100.00
21236;BME280;10775;42.678;26.324;2023-04-23T05:22:27;98815.47;;;10.42;100.00
21236;BME280;10775;42.678;26.324;2023-04-23T05:24:53;98812.91;;;10.39;100.00
21236;BME280;10775;42.678;26.324;2023-04-23T05:27:18;98819.75;;;10.47;100.00
21236;BME280;10775;42.678;26.324;2023-04-23T05:29:44;98825.75;;;10.53;100.00
21236;BME280;10775;42.678;26.324;2023-04-23T05:32:09;98827.41;;;10.59;100.00
21236;BME280;10775;42.678;26.324;2023-04-23T05:34:35;98828.06;;;10.70;100.00
21236;BME280;10775;42.678;26.324;2023-04-23T05:37:01;98828.97;;;10.69;100.00
21236;BME280;10775;42.678;26.324;2023-04-23T05:39:27;98833.13;;;10.79;100.00
21236;BME280;10775;42.678;26.324;2023-04-23T05:41:52;98826.06;;;10.83;100.00
21236;BME280;10775;42.678;26.324;2023-04-23T05:44:18;98831.22;;;10.89;100.00
21236;BME280;10775;42.678;26.324;2023-04-23T05:46:43;98831.88;;;10.99;100.00
21236;BME280;10775;42.678;26.324;2023-04-23T05:49:08;98832.56;;;11.08;100.00
21236;BME280;10775;42.678;26.324;2023-04-23T05:51:34;98828.81;;;11.22;100.00
21236;BME280;10775;42.678;26.324;2023-04-23T05:54:00;98823.31;;;11.34;100.00
21236;BME280;10775;42.678;26.324;2023-04-23T05:56:25;98831.00;;;11.43;96.53
21236;BME280;10775;42.678;26.324;2023-04-23T05:58:50;98827.22;;;11.57;95.96
21236;BME280;10775;42.678;26.324;2023-04-23T06:01:16;98821.81;;;11.64;96.48
21236;BME280;10775;42.678;26.324;2023-04-23T06:03:42;98818.09;;;11.74;96.07
21236;BME280;10775;42.678;26.324;2023-04-23T06:06:13;98826.56;;;11.86;93.60
21236;BME280;10775;42.678;26.324;2023-04-23T06:08:38;98826.38;;;11.95;95.87
21236;BME280;10775;42.678;26.324;2023-04-23T06:11:04;98828.19;;;11.93;84.87
21236;BME280;10775;42.678;26.324;2023-04-23T06:13:30;98828.06;;;11.98;87.47
21236;BME280;10775;42.678;26.324;2023-04-23T06:15:56;98824.34;;;12.08;88.06
21236;BME280;10775;42.678;26.324;2023-04-23T06:18:22;98822.13;;;12.27;93.85
21236;BME280;10775;42.678;26.324;2023-04-23T06:20:47;98823.56;;;13.38;93.46
21236;BME280;10775;42.678;26.324;2023-04-23T06:23:13;98826.56;;;14.92;86.42
21236;BME280;10775;42.678;26.324;2023-04-23T06:25:39;98819.88;;;16.01;73.48
21236;BME280;10775;42.678;26.324;2023-04-23T06:28:05;98817.69;;;16.75;73.24
21236;BME280;10775;42.678;26.324;2023-04-23T06:30:30;98814.16;;;17.36;68.17
21236;BME280;10775;42.678;26.324;2023-04-23T06:32:56;98809.50;;;17.79;63.69
21236;BME280;10775;42.678;26.324;2023-04-23T06:35:21;98817.50;;;17.21;64.04
21236;BME280;10775;42.678;26.324;2023-04-23T06:37:47;98820.03;;;16.83;63.51
21236;BME280;10775;42.678;26.324;2023-04-23T06:40:13;98817.41;;;16.61;65.89
21236;BME280;10775;42.678;26.324;2023-04-23T06:42:38;98822.19;;;17.14;69.43
21236;BME280;10775;42.678;26.324;2023-04-23T06:45:04;98824.00;;;17.32;66.11
21236;BME280;10775;42.678;26.324;2023-04-23T06:47:30;98831.03;;;16.72;62.37
21236;BME280;10775;42.678;26.324;2023-04-23T06:49:57;98828.28;;;16.95;67.47
21236;BME280;10775;42.678;26.324;2023-04-23T06:52:24;98829.34;;;17.89;62.96
21236;BME280;10775;42.678;26.324;2023-04-23T06:54:50;98828.78;;;18.73;61.41
21236;BME280;10775;42.678;26.324;2023-04-23T06:57:16;98824.69;;;18.84;58.51
21236;BME280;10775;42.678;26.324;2023-04-23T06:59:41;98826.06;;;19.58;58.55
21236;BME280;10775;42.678;26.324;2023-04-23T07:02:07;98821.06;;;20.79;54.20
21236;BME280;10775;42.678;26.324;2023-04-23T07:04:32;98819.91;;;21.70;51.25
21236;BME280;10775;42.678;26.324;2023-04-23T07:06:58;98824.06;;;21.75;48.89
21236;BME280;10775;42.678;26.324;2023-04-23T07:09:25;98823.84;;;21.06;49.76
21236;BME280;10775;42.678;26.324;2023-04-23T07:11:51;98834.88;;;19.92;48.83
21236;BME280;10775;42.678;26.324;2023-04-23T07:14:16;98832.25;;;19.59;50.87
21236;BME280;10775;42.678;26.324;2023-04-23T07:16:42;98834.09;;;19.07;47.93
21236;BME280;10775;42.678;26.324;2023-04-23T07:19:07;98841.28;;;19.72;51.40
21236;BME280;10775;42.678;26.324;2023-04-23T07:21:33;98832.19;;;21.00;48.39
21236;BME280;10775;42.678;26.324;2023-04-23T07:23:58;98836.88;;;20.80;49.64
21236;BME280;10775;42.678;26.324;2023-04-23T07:26:24;98837.03;;;19.52;48.33
21236;BME280;10775;42.678;26.324;2023-04-23T07:28:51;98831.63;;;20.03;47.67
21236;BME280;10775;42.678;26.324;2023-04-23T07:31:17;98836.75;;;20.68;47.45
21236;BME280;10775;42.678;26.324;2023-04-23T07:33:43;98836.88;;;20.80;47.38
21236;BME280;10775;42.678;26.324;2023-04-23T07:36:09;98835.97;;;20.04;46.83
21236;BME280;10775;42.678;26.324;2023-04-23T07:38:35;98835.22;;;20.48;50.37
21236;BME280;10775;42.678;26.324;2023-04-23T07:41:00;98836.72;;;20.98;47.40
21236;BME280;10775;42.678;26.324;2023-04-23T07:43:26;98838.94;;;21.34;45.92
21236;BME280;10775;42.678;26.324;2023-04-23T07:45:51;98844.28;;;21.34;49.06
21236;BME280;10775;42.678;26.324;2023-04-23T07:48:17;98835.53;;;21.75;44.90
21236;BME280;10775;42.678;26.324;2023-04-23T07:50:42;98831.72;;;22.35;46.22
21236;BME280;10775;42.678;26.324;2023-04-23T07:53:07;98834.28;;;22.36;44.87
21236;BME280;10775;42.678;26.324;2023-04-23T07:55:33;98831.69;;;22.22;42.61
21236;BME280;10775;42.678;26.324;2023-04-23T07:57:58;98828.81;;;20.52;41.46
21236;BME280;10775;42.678;26.324;2023-04-23T08:00:24;98834.63;;;20.12;45.07
21236;BME280;10775;42.678;26.324;2023-04-23T08:02:50;98829.19;;;20.14;44.73
21236;BME280;10775;42.678;26.324;2023-04-23T08:05:17;98828.56;;;20.56;45.68
21236;BME280;10775;42.678;26.324;2023-04-23T08:07:42;98830.66;;;20.35;44.20
21236;BME280;10775;42.678;26.324;2023-04-23T08:10:08;98834.50;;;20.14;46.14
21236;BME280;10775;42.678;26.324;2023-04-23T08:12:33;98835.38;;;20.30;47.55
21236;BME280;10775;42.678;26.324;2023-04-23T08:15:00;98826.09;;;20.98;43.19
21236;BME280;10775;42.678;26.324;2023-04-23T08:17:26;98824.47;;;20.19;47.87
21236;BME280;10775;42.678;26.324;2023-04-23T08:19:51;98831.78;;;20.00;44.85
21236;BME280;10775;42.678;26.324;2023-04-23T08:22:17;98820.16;;;20.64;49.05
21236;BME280;10775;42.678;26.324;2023-04-23T08:24:43;98819.97;;;21.26;44.63
21236;BME280;10775;42.678;26.324;2023-04-23T08:27:10;98814.94;;;21.07;43.70
21236;BME280;10775;42.678;26.324;2023-04-23T08:29:36;98813.50;;;20.41;42.68
21236;BME280;10775;42.678;26.324;2023-04-23T08:32:01;98816.25;;;21.00;46.09
21236;BME280;10775;42.678;26.324;2023-04-23T08:34:27;98818.56;;;20.30;41.87
21236;BME280;10775;42.678;26.324;2023-04-23T08:36:53;98817.34;;;20.81;46.55
21236;BME280;10775;42.678;26.324;2023-04-23T08:39:18;98814.19;;;21.19;40.57
21236;BME280;10775;42.678;26.324;2023-04-23T08:41:48;98813.78;;;20.97;40.56
21236;BME280;10775;42.678;26.324;2023-04-23T08:44:21;98817.47;;;21.09;43.86
21236;BME280;10775;42.678;26.324;2023-04-23T08:46:48;98811.88;;;20.38;40.97
21236;BME280;10775;42.678;26.324;2023-04-23T08:49:15;98810.13;;;20.07;40.89
21236;BME280;10775;42.678;26.324;2023-04-23T08:51:51;98806.31;;;20.43;44.30
21236;BME280;10775;42.678;26.324;2023-04-23T08:54:27;98806.00;;;21.08;40.44
21236;BME280;10775;42.678;26.324;2023-04-23T08:56:56;98806.31;;;22.02;42.36
21236;BME280;10775;42.678;26.324;2023-04-23T08:59:30;98796.91;;;22.38;40.16
21236;BME280;10775;42.678;26.324;2023-04-23T09:01:56;98795.00;;;22.40;40.62
21236;BME280;10775;42.678;26.324;2023-04-23T09:04:22;98794.31;;;22.36;42.53
21236;BME280;10775;42.678;26.324;2023-04-23T09:06:50;98801.56;;;22.07;39.48
21236;BME280;10775;42.678;26.324;2023-04-23T09:09:16;98803.88;;;20.84;40.56
21236;BME280;10775;42.678;26.324;2023-04-23T09:11:43;98812.91;;;19.41;43.62
21236;BME280;10775;42.678;26.324;2023-04-23T09:14:08;98805.09;;;20.49;45.08
21236;BME280;10775;42.678;26.324;2023-04-23T09:16:35;98805.78;;;19.74;43.96
21236;BME280;10775;42.678;26.324;2023-04-23T09:19:01;98800.97;;;20.13;42.80
21236;BME280;10775;42.678;26.324;2023-04-23T09:21:27;98799.28;;;21.17;41.41
21236;BME280;10775;42.678;26.324;2023-04-23T09:23:52;98796.69;;;21.73;43.90
21236;BME280;10775;42.678;26.324;2023-04-23T09:26:21;98794.34;;;21.95;43.18
21236;BME280;10775;42.678;26.324;2023-04-23T09:28:50;98797.00;;;21.39;41.51
21236;BME280;10775;42.678;26.324;2023-04-23T09:31:22;98797.84;;;21.11;41.19
21236;BME280;10775;42.678;26.324;2023-04-23T09:33:52;98799.50;;;19.75;43.42
21236;BME280;10775;42.678;26.324;2023-04-23T09:36:21;98790.16;;;20.16;43.76
21236;BME280;10775;42.678;26.324;2023-04-23T09:38:49;98783.91;;;20.63;42.50
21236;BME280;10775;42.678;26.324;2023-04-23T09:41:25;98786.63;;;21.06;43.44
21236;BME280;10775;42.678;26.324;2023-04-23T09:43:55;98787.41;;;21.22;44.88
21236;BME280;10775;42.678;26.324;2023-04-23T09:46:33;98777.50;;;20.81;45.95
21236;BME280;10775;42.678;26.324;2023-04-23T09:49:03;98785.97;;;21.02;40.93
21236;BME280;10775;42.678;26.324;2023-04-23T09:51:30;98788.28;;;20.78;40.21
21236;BME280;10775;42.678;26.324;2023-04-23T09:53:56;98788.06;;;21.12;41.09
21236;BME280;10775;42.678;26.324;2023-04-23T09:56:23;98779.28;;;21.40;39.63
21236;BME280;10775;42.678;26.324;2023-04-23T09:58:49;98776.22;;;21.60;39.51
21236;BME280;10775;42.678;26.324;2023-04-23T10:01:14;98779.59;;;21.34;42.45
21236;BME280;10775;42.678;26.324;2023-04-23T10:03:43;98763.00;;;21.16;41.82
21236;BME280;10775;42.678;26.324;2023-04-23T10:06:13;98771.38;;;20.65;40.78
21236;BME280;10775;42.678;26.324;2023-04-23T10:08:39;98771.44;;;20.79;41.76
21236;BME280;10775;42.678;26.324;2023-04-23T10:11:05;98764.03;;;20.24;44.49
21236;BME280;10775;42.678;26.324;2023-04-23T10:13:33;98763.97;;;20.26;46.43
21236;BME280;10775;42.678;26.324;2023-04-23T10:16:00;98765.88;;;20.08;38.99
21236;BME280;10775;42.678;26.324;2023-04-23T10:18:29;98767.50;;;19.14;39.69
21236;BME280;10775;42.678;26.324;2023-04-23T10:20:57;98761.84;;;19.53;46.31
21236;BME280;10775;42.678;26.324;2023-04-23T10:23:23;98752.63;;;20.38;46.81
21236;BME280;10775;42.678;26.324;2023-04-23T10:25:52;98750.44;;;20.75;41.81
21236;BME280;10775;42.678;26.324;2023-04-23T10:28:21;98751.63;;;20.99;39.41
21236;BME280;10775;42.678;26.324;2023-04-23T10:30:53;98743.75;;;21.12;42.04
21236;BME280;10775;42.678;26.324;2023-04-23T10:33:19;98754.38;;;21.12;42.16
21236;BME280;10775;42.678;26.324;2023-04-23T10:35:46;98746.59;;;20.95;39.59
21236;BME280;10775;42.678;26.324;2023-04-23T10:38:13;98747.53;;;20.19;44.57
21236;BME280;10775;42.678;26.324;2023-04-23T10:40:42;98742.66;;;20.41;39.64
21236;BME280;10775;42.678;26.324;2023-04-23T10:43:09;98735.72;;;20.39;40.03
21236;BME280;10775;42.678;26.324;2023-04-23T10:45:34;98735.34;;;20.45;36.35
21236;BME280;10775;42.678;26.324;2023-04-23T10:48:00;98740.94;;;20.71;37.15
21236;BME280;10775;42.678;26.324;2023-04-23T10:50:26;98740.50;;;20.93;44.16
21236;BME280;10775;42.678;26.324;2023-04-23T10:52:52;98728.94;;;21.22;43.62
21236;BME280;10775;42.678;26.324;2023-04-23T10:55:23;98734.03;;;21.25;39.63
21236;BME280;10775;42.678;26.324;2023-04-23T10:58:03;98728.16;;;21.06;40.72
21236;BME280;10775;42.678;26.324;2023-04-23T11:05:53;98719.53;;;21.17;45.93
21236;BME280;10775;42.678;26.324;2023-04-23T11:08:18;98722.69;;;21.09;41.51
21236;BME280;10775;42.678;26.324;2023-04-23T11:10:52;98721.22;;;21.32;35.89
21236;BME280;10775;42.678;26.324;2023-04-23T11:13:22;98721.41;;;21.43;39.13
21236;BME280;10775;42.678;26.324;2023-04-23T11:16:15;98711.28;;;21.07;37.39
21236;BME280;10775;42.678;26.324;2023-04-23T11:19:07;98707.97;;;20.45;36.18
21236;BME280;10775;42.678;26.324;2023-04-23T11:21:57;98704.81;;;20.82;37.88
21236;BME280;10775;42.678;26.324;2023-04-23T11:24:42;98708.63;;;20.93;36.34
21236;BME280;10775;42.678;26.324;2023-04-23T11:27:09;98706.13;;;21.33;32.96
21236;BME280;10775;42.678;26.324;2023-04-23T11:29:39;98703.00;;;21.26;40.31
21236;BME280;10775;42.678;26.324;2023-04-23T11:32:05;98697.78;;;21.24;38.25
21236;BME280;10775;42.678;26.324;2023-04-23T11:34:46;98695.13;;;21.24;38.31
21236;BME280;10775;42.678;26.324;2023-04-23T11:37:13;98699.22;;;20.87;40.27
21236;BME280;10775;42.678;26.324;2023-04-23T11:39:39;98702.72;;;20.88;33.41
21236;BME280;10775;42.678;26.324;2023-04-23T11:42:12;98706.53;;;20.98;37.11
21236;BME280;10775;42.678;26.324;2023-04-23T11:44:39;98699.59;;;21.10;32.96
21236;BME280;10775;42.678;26.324;2023-04-23T11:47:11;98692.41;;;21.12;35.42
21236;BME280;10775;42.678;26.324;2023-04-23T11:49:37;98697.41;;;21.16;41.77
21236;BME280;10775;42.678;26.324;2023-04-23T11:52:04;98694.69;;;20.14;38.38
21236;BME280;10775;42.678;26.324;2023-04-23T11:54:29;98697.09;;;20.19;36.32
21236;BME280;10775;42.678;26.324;2023-04-23T11:56:55;98690.72;;;20.52;39.80
21236;BME280;10775;42.678;26.324;2023-04-23T11:59:22;98682.63;;;20.98;38.90
21236;BME280;10775;42.678;26.324;2023-04-23T12:01:56;98680.16;;;21.09;37.06
21236;BME280;10775;42.678;26.324;2023-04-23T12:04:26;98677.63;;;21.49;38.43
21236;BME280;10775;42.678;26.324;2023-04-23T12:06:54;98677.25;;;21.55;37.86
21236;BME280;10775;42.678;26.324;2023-04-23T12:09:21;98671.81;;;21.57;39.93
21236;BME280;10775;42.678;26.324;2023-04-23T12:11:47;98665.78;;;21.26;43.98
21236;BME280;10775;42.678;26.324;2023-04-23T12:14:16;98666.34;;;21.31;39.30
21236;BME280;10775;42.678;26.324;2023-04-23T12:16:43;98669.66;;;21.35;35.91
21236;BME280;10775;42.678;26.324;2023-04-23T12:19:14;98662.50;;;20.65;42.82
21236;BME280;10775;42.678;26.324;2023-04-23T12:21:53;98654.22;;;20.11;38.38
21236;BME280;10775;42.678;26.324;2023-04-23T12:24:27;98654.69;;;20.03;38.74
21236;BME280;10775;42.678;26.324;2023-04-23T12:26:54;98641.75;;;19.83;42.59
21236;BME280;10775;42.678;26.324;2023-04-23T12:29:21;98634.53;;;20.15;41.96
21236;BME280;10775;42.678;26.324;2023-04-23T12:31:48;98631.34;;;20.38;37.76
21236;BME280;10775;42.678;26.324;2023-04-23T12:34:14;98625.31;;;20.06;43.59
21236;BME280;10775;42.678;26.324;2023-04-23T12:36:45;98630.63;;;20.06;36.25
21236;BME280;10775;42.678;26.324;2023-04-23T12:39:32;98622.06;;;20.46;42.71
21236;BME280;10775;42.678;26.324;2023-04-23T12:42:04;98617.22;;;20.81;36.90
21236;BME280;10775;42.678;26.324;2023-04-23T12:44:33;98616.28;;;20.96;44.17
21236;BME280;10775;42.678;26.324;2023-04-23T12:47:09;98619.19;;;21.06;37.25
21236;BME280;10775;42.678;26.324;2023-04-23T12:49:44;98616.72;;;21.17;39.43
21236;BME280;10775;42.678;26.324;2023-04-23T12:52:10;98614.75;;;21.06;39.45
21236;BME280;10775;42.678;26.324;2023-04-23T12:54:38;98600.78;;;21.03;43.21